Terminal Aerodrome Forecast
Issued by NWS

Home | Current Version | Previous Version | Text Only | Print | Product List | Glossary On
Versions: 1 2 3 4 5 6 7 8 9 10 11 12
000
FTUS42 TJSJ 091120
TAFJMZ
TAF
TJMZ 091120Z 0912/1012 06005KT P6SM SCT120
     FM091300 07010KT P6SM FEW030
     FM091630 27012KT P6SM VCSH SCT025 BKN040
     FM092200 06006KT P6SM FEW030 FEW060
      AMD NOT SKED TIL 091500=

USA.gov is the U.S. government's official web portal to all federal, state and local government web resources and services.